Cut Bank Municipal Airport
KCTB : rendu visible

Aérodrome :











RETROUVEZ-NOUS SUR...

 
LOGIN :

S'inscrire | Disclaimer

   EN    FR    IT 

 









Légende :    VFR   VFR Marginal   IFR   IFR Intensif   IFR Très Intensif
Visi : 
Plafond : 
>= 8 km
>= 3000ft
5 à 8 km
1000 à 3000 ft
1500m à 5 km
500 à 1000 ft
800 à 1500m
200 à 500 ft
< 800m
< 200 ft
Symboles :   Orages  Brouillard  Fortes neiges  Fortes précipitations  Vent > 20 kt






- Altitude de l'aérodrome : 3854 ft


KCTB - Cut Bank Municipal

DERNIER METAR :
  • 190256Z AUTO 07004KT 10SM CLR M14/M17 A3024 RMK AO2 SLP322 T11441167 53006

METARs EXPIRÉS :
  • 190156Z AUTO 13005KT 10SM CLR M11/M14 A3023 RMK AO2 SLP310 T11061139
  • 190056Z AUTO 13005KT 10SM CLR M10/M13 A3023 RMK AO2 SLP308 T11001133

TAF KCTB
Valide du 19 à 00h jusqu'au 20 à 00h UTC


182320Z 1900/1924 VRB06KT P6SM FEW040 SCT090
FM190500 VRB05KT P6SM SKC
FM191800 23011G20KT P6SM SKC



MET'MAP, la Météo Aéronautique d'un coup d'oeil ! - Copyright ORBIFLY Décembre 2007 - Disclaimer

ORBIFLY MET'MAP TEAM :

Programmation & Développement : Alexandra Zaïnal
Sur une idée originale de : Baudouin d'Aumeries
Assistance à la programmation : Marc-Olivier Méhu
Soutien technique & logistique : Manuel Goepfert

Contact : metmap@orbifly.com




SOURCES & CREDITS :

   NOAA       Earth
Advisory